Time;durP1;ratioP1;P1;durP2;ratioP2;P2;SDS_P1;SDS_P2;PMS_P1;PMS_P2;Temp;Humidity;BMP_temperature;BMP_pressure;BME280_temperature;BME280_humidity;BME280_pressure;Samples;Min_cycle;Max_cycle;Signal;HPM_P1;HPM_P2
2022/03/29 06:05:13;;;;;;;22.48;11.20;;;;;;;8.93;58.86;99436.28;1088324;54;20082;-82
2022/03/29 06:06:15;;;;;;;19.52;10.00;;;;;;;8.93;58.95;99436.28;1088321;54;20034;-84
2022/03/29 06:07:20;;;;;;;22.80;10.88;;;;;;;8.89;59.13;99435.75;1088308;54;20091;-84
2022/03/29 06:08:22;;;;;;;20.23;11.23;;;;;;;8.94;59.18;99443.31;1088244;54;20019;-84
2022/03/29 06:09:26;;;;;;;19.70;10.57;;;;;;;8.94;59.00;99437.97;1090442;46;20041;-83
2022/03/29 06:10:30;;;;;;;20.50;10.57;;;;;;;8.92;59.35;99440.81;1088227;54;20030;-84
2022/03/29 06:11:31;;;;;;;23.33;12.10;;;;;;;8.88;59.34;99444.75;1088372;54;20014;-84
2022/03/29 06:12:36;;;;;;;22.27;12.52;;;;;;;8.84;59.23;99444.19;1091143;46;20019;-86
2022/03/29 06:13:38;;;;;;;22.65;11.80;;;;;;;8.82;59.64;99446.16;1090201;39;20740;-84
2022/03/29 06:14:42;;;;;;;19.08;10.88;;;;;;;8.82;59.43;99440.84;1088394;54;20045;-85
2022/03/29 06:15:43;;;;;;;19.38;11.60;;;;;;;8.82;59.38;99440.84;1090051;46;20030;-86
2022/03/29 06:16:51;;;;;;;19.48;10.85;;;;;;;8.81;59.63;99439.16;1088351;54;20026;-84
2022/03/29 06:17:53;;;;;;;16.02;9.85;;;;;;;8.87;59.14;99435.91;1096308;46;20057;-82
2022/03/29 06:18:57;;;;;;;16.08;10.98;;;;;;;8.87;59.36;99438.59;1088249;54;20018;-82
2022/03/29 06:19:58;;;;;;;20.27;11.25;;;;;;;8.90;59.38;99442.78;1088239;54;20019;-82
2022/03/29 06:21:05;;;;;;;27.80;12.55;;;;;;;8.88;59.52;99440.22;1089896;46;20041;-83
2022/03/29 06:22:06;;;;;;;23.23;11.23;;;;;;;8.94;59.25;99437.97;1088378;54;20038;-84
2022/03/29 06:23:11;;;;;;;20.02;10.68;;;;;;;8.98;58.97;99444.66;1088318;54;20015;-84
2022/03/29 06:24:13;;;;;;;22.40;11.43;;;;;;;9.00;59.25;99442.69;1088208;54;20074;-83
2022/03/29 06:25:20;;;;;;;20.95;10.45;;;;;;;9.05;58.84;99443.94;1088503;47;20041;-82
2022/03/29 06:26:24;;;;;;;31.10;11.52;;;;;;;9.03;58.85;99445.91;1088273;54;20030;-85
2022/03/29 06:27:26;;;;;;;23.83;10.93;;;;;;;9.09;58.74;99447.13;1088313;54;20070;-83
2022/03/29 06:28:30;;;;;;;29.42;13.80;;;;;;;9.01;58.97;99439.03;1088263;54;20065;-82
2022/03/29 06:29:35;;;;;;;36.67;12.45;;;;;;;9.07;58.85;99442.94;1088338;54;20169;-84
2022/03/29 06:30:37;;;;;;;39.30;12.90;;;;;;;9.11;58.66;99439.00;1088355;47;20030;-83
2022/03/29 06:31:41;;;;;;;36.90;11.85;;;;;;;9.14;58.67;99438.69;1088027;54;20027;-81
2022/03/29 06:32:47;;;;;;;30.90;12.00;;;;;;;9.18;58.54;99430.22;1088267;54;20035;-83
2022/03/29 06:33:52;;;;;;;31.08;11.05;;;;;;;9.22;58.53;99436.09;1088336;54;20019;-83
2022/03/29 06:34:53;;;;;;;29.40;12.55;;;;;;;9.27;58.49;99428.50;1089752;39;20555;-86
2022/03/29 06:35:59;;;;;;;27.08;11.48;;;;;;;9.28;58.21;99437.31;1088321;54;20011;-83
2022/03/29 06:37:04;;;;;;;23.90;11.55;;;;;;;9.29;58.10;99436.34;1088414;47;20014;-85
2022/03/29 06:38:09;;;;;;;25.38;10.68;;;;;;;9.30;58.18;99438.03;1088288;54;20057;-83
2022/03/29 06:39:14;;;;;;;23.63;11.57;;;;;;;9.28;58.04;99435.50;1088409;54;20031;-84
2022/03/29 06:41:21;;;;;;;21.00;11.40;;;;;;;9.37;57.80;99436.41;1088261;54;20037;-83
2022/03/29 06:42:25;;;;;;;25.83;12.35;;;;;;;9.42;58.04;99444.81;1088244;54;20046;-82
2022/03/29 06:43:29;;;;;;;21.30;11.80;;;;;;;9.44;57.87;99436.66;1088179;54;20026;-84
2022/03/29 06:44:34;;;;;;;23.95;11.70;;;;;;;9.44;57.74;99434.84;1090136;39;20662;-82
2022/03/29 06:45:39;;;;;;;22.40;11.60;;;;;;;9.49;57.55;99437.88;1088202;54;20090;-84
2022/03/29 06:46:41;;;;;;;19.63;12.13;;;;;;;9.58;57.26;99437.94;1088212;54;20038;-83
2022/03/29 06:47:45;;;;;;;24.38;12.52;;;;;;;9.59;57.15;99431.63;1088228;54;20034;-83
2022/03/29 06:48:47;;;;;;;29.75;14.52;;;;;;;9.57;57.43;99433.59;1088147;54;20046;-84
2022/03/29 06:49:52;;;;;;;21.55;12.63;;;;;;;9.65;57.13;99436.34;1088097;54;20030;-83
2022/03/29 06:50:57;;;;;;;27.65;15.98;;;;;;;9.64;57.06;99432.84;1088193;54;20061;-81
2022/03/29 06:51:58;;;;;;;24.73;14.50;;;;;;;9.69;57.06;99429.72;1088177;54;20030;-85
2022/03/29 06:53:06;;;;;;;26.70;13.75;;;;;;;9.74;57.01;99432.75;1088248;54;20037;-84
2022/03/29 06:54:10;;;;;;;29.02;13.65;;;;;;;9.77;56.95;99440.44;1088202;54;20045;-83
2022/03/29 06:55:14;;;;;;;25.90;13.73;;;;;;;9.80;56.56;99431.28;1088228;54;20050;-84
2022/03/29 06:56:18;;;;;;;21.77;12.48;;;;;;;9.89;56.70;99430.34;1088183;54;20033;-84
2022/03/29 06:57:19;;;;;;;26.13;12.32;;;;;;;9.88;56.28;99430.53;1088268;54;20041;-87
2022/03/29 06:58:24;;;;;;;22.48;12.00;;;;;;;9.97;56.24;99430.41;1088138;54;20049;-84
2022/03/29 06:59:25;;;;;;;22.70;11.82;;;;;;;9.94;56.32;99428.06;1088175;54;20038;-85
2022/03/29 07:00:29;;;;;;;34.53;13.48;;;;;;;9.93;56.25;99433.56;1090286;39;20800;-84
2022/03/29 07:01:34;;;;;;;35.72;13.10;;;;;;;9.96;56.23;99433.25;1088300;54;20034;-84
2022/03/29 07:02:36;;;;;;;29.90;12.27;;;;;;;10.02;56.16;99434.47;1088266;54;20098;-84
2022/03/29 07:03:40;;;;;;;25.67;12.73;;;;;;;10.01;56.06;99436.31;1088198;54;20094;-85
2022/03/29 07:04:42;;;;;;;33.33;13.98;;;;;;;9.99;55.79;99441.78;1088259;54;20030;-84
2022/03/29 07:05:48;;;;;;;27.10;12.50;;;;;;;10.06;55.62;99442.00;1088180;54;20035;-85
2022/03/29 07:06:50;;;;;;;26.27;10.80;;;;;;;10.12;55.68;99438.69;1088274;54;20086;-84
2022/03/29 07:07:54;;;;;;;22.00;11.15;;;;;;;10.17;55.50;99445.41;1089965;39;20653;-83
2022/03/29 07:11:31;;;;;;;23.63;12.77;;;;;;;9.94;55.63;99443.25;1088248;54;20726;-84
2022/03/29 07:12:49;;;;;;;23.05;12.18;;;;;;;9.84;55.68;99436.16;1088263;54;20034;-85
2022/03/29 07:13:53;;;;;;;26.50;13.57;;;;;;;9.90;55.71;99440.03;1088259;54;20037;-83
2022/03/29 07:14:58;;;;;;;21.30;11.88;;;;;;;9.97;55.21;99441.09;1088346;54;20022;-85
2022/03/29 07:16:00;;;;;;;18.95;11.45;;;;;;;10.04;55.28;99448.50;1095853;39;20920;-86
2022/03/29 07:17:11;;;;;;;23.98;12.27;;;;;;;10.01;55.10;99446.97;1088319;54;20021;-83
2022/03/29 07:18:15;;;;;;;24.60;13.52;;;;;;;9.99;55.31;99446.28;1088235;54;20034;-83
2022/03/29 07:19:17;;;;;;;30.15;13.63;;;;;;;9.92;55.30;99445.25;1088014;54;20099;-84
2022/03/29 07:20:22;;;;;;;22.83;12.70;;;;;;;9.94;55.66;99441.41;1087939;54;21012;-86
2022/03/29 07:21:26;;;;;;;24.85;14.20;;;;;;;10.03;55.43;99439.63;1088196;54;20082;-84
2022/03/29 07:22:30;;;;;;;21.73;13.95;;;;;;;10.06;55.37;99443.84;1089430;47;20019;-85
2022/03/29 07:23:32;;;;;;;21.85;12.70;;;;;;;10.08;55.14;99445.38;1088492;47;20023;-84
2022/03/29 07:24:38;;;;;;;28.25;13.25;;;;;;;10.09;54.80;99444.38;1088189;54;20019;-83
2022/03/29 07:25:43;;;;;;;24.83;13.85;;;;;;;10.08;54.87;99441.84;1088051;54;20049;-85
2022/03/29 07:26:44;;;;;;;21.50;12.68;;;;;;;10.13;54.78;99440.38;1088194;54;20042;-83
2022/03/29 07:27:52;;;;;;;21.23;12.25;;;;;;;10.29;54.46;99438.81;1088147;54;20034;-84
2022/03/29 07:28:53;;;;;;;19.63;11.00;;;;;;;10.34;54.03;99436.50;1088104;54;20086;-84
2022/03/29 07:29:59;;;;;;;21.35;12.52;;;;;;;10.26;53.94;99439.13;1088132;54;20034;-83
2022/03/29 07:31:03;;;;;;;18.80;12.65;;;;;;;10.34;53.60;99443.69;1088180;54;20808;-86
2022/03/29 07:32:05;;;;;;;24.70;13.05;;;;;;;10.21;53.56;99436.06;1088199;54;20041;-82
2022/03/29 07:33:11;;;;;;;25.30;13.75;;;;;;;9.97;53.41;99441.09;1088216;54;20094;-83
2022/03/29 07:34:16;;;;;;;25.33;14.02;;;;;;;10.00;53.41;99439.97;1088112;54;20030;-85
2022/03/29 07:35:23;;;;;;;33.30;14.02;;;;;;;10.00;52.90;99437.28;1088223;54;20074;-86
2022/03/29 07:36:28;;;;;;;25.75;12.88;;;;;;;10.21;52.61;99438.75;1088132;54;20037;-85
2022/03/29 07:37:32;;;;;;;23.90;13.63;;;;;;;10.18;52.63;99441.75;1088162;54;20714;-83
2022/03/29 07:38:36;;;;;;;20.25;12.88;;;;;;;10.11;52.74;99442.34;1088120;54;20034;-84
2022/03/29 07:39:43;;;;;;;25.02;14.35;;;;;;;9.98;52.56;99448.09;1088154;54;20018;-84
2022/03/29 07:40:47;;;;;;;27.90;14.27;;;;;;;9.96;52.60;99446.59;1087871;54;20022;-84
2022/03/29 07:41:51;;;;;;;23.90;12.98;;;;;;;10.09;52.46;99443.50;1088164;54;20284;-84
2022/03/29 07:42:53;;;;;;;22.30;13.65;;;;;;;10.22;52.03;99443.94;1088444;54;20034;-85
2022/03/29 07:43:57;;;;;;;23.95;12.98;;;;;;;10.19;51.95;99438.91;1088453;54;20075;-85
2022/03/29 07:44:59;;;;;;;19.95;12.93;;;;;;;10.13;51.78;99436.88;1088543;54;20323;-85
2022/03/29 07:46:03;;;;;;;21.90;13.43;;;;;;;10.20;51.70;99439.75;1088422;54;20022;-84
2022/03/29 07:47:04;;;;;;;24.77;14.15;;;;;;;10.22;51.55;99435.94;1088573;54;20019;-85
2022/03/29 07:48:10;;;;;;;25.25;13.50;;;;;;;10.25;51.50;99437.44;1088517;54;20019;-85
2022/03/29 07:49:14;;;;;;;23.73;13.02;;;;;;;10.22;51.03;99438.59;1088413;54;20034;-84
2022/03/29 07:50:19;;;;;;;26.65;13.98;;;;;;;10.11;51.21;99445.03;1088457;54;20041;-85
2022/03/29 07:51:24;;;;;;;26.15;14.02;;;;;;;10.22;51.30;99445.75;1088774;46;20066;-85
2022/03/29 07:52:25;;;;;;;21.63;12.50;;;;;;;10.51;50.80;99441.97;1088501;54;20034;-83
2022/03/29 07:53:30;;;;;;;16.33;11.70;;;;;;;10.71;50.46;99443.41;1089077;46;20103;-84
2022/03/29 07:54:31;;;;;;;19.52;12.07;;;;;;;10.89;49.98;99434.44;1088445;54;20046;-82
2022/03/29 07:55:40;;;;;;;15.65;11.82;;;;;;;11.04;49.38;99440.84;1088499;54;20026;-81
2022/03/29 07:56:44;;;;;;;15.70;11.18;;;;;;;11.20;49.56;99445.38;1088473;54;20098;-85
2022/03/29 07:57:46;;;;;;;17.98;11.77;;;;;;;11.23;49.29;99436.22;1088520;54;20058;-82
2022/03/29 07:58:50;;;;;;;18.13;11.35;;;;;;;11.21;49.10;99447.06;1088405;54;20073;-85
2022/03/29 07:59:52;;;;;;;23.00;13.00;;;;;;;11.18;49.10;99441.22;1088323;54;20773;-81
2022/03/29 08:00:56;;;;;;;23.85;13.43;;;;;;;11.15;49.26;99442.38;1088363;54;20042;-83
2022/03/29 08:01:58;;;;;;;19.85;12.85;;;;;;;11.36;48.84;99435.75;1088452;54;20045;-83
2022/03/29 08:03:03;;;;;;;17.77;11.77;;;;;;;11.54;48.74;99438.25;1088372;54;20034;-82
2022/03/29 08:04:08;;;;;;;19.25;11.60;;;;;;;11.56;48.55;99438.94;1088322;54;20025;-84
2022/03/29 08:05:09;;;;;;;18.27;11.20;;;;;;;11.66;48.42;99434.25;1088443;54;20057;-83
2022/03/29 08:06:14;;;;;;;14.25;10.43;;;;;;;11.80;48.28;99431.94;1088461;54;20018;-85
2022/03/29 08:07:15;;;;;;;14.10;10.18;;;;;;;11.89;48.02;99432.75;1088721;46;20018;-83
2022/03/29 08:08:20;;;;;;;16.52;11.25;;;;;;;11.96;47.58;99426.56;1088304;54;20041;-83
2022/03/29 08:09:24;;;;;;;14.88;10.25;;;;;;;12.02;47.63;99425.06;1088318;54;20030;-82
2022/03/29 08:10:28;;;;;;;16.65;10.30;;;;;;;12.24;47.22;99418.16;1088373;54;20034;-82
2022/03/29 08:11:36;;;;;;;21.02;13.30;;;;;;;12.25;46.47;99417.16;1088757;46;20018;-83
2022/03/29 08:12:38;;;;;;;18.65;11.80;;;;;;;12.36;46.65;99420.50;1088431;54;20034;-84
2022/03/29 08:13:43;;;;;;;15.15;10.35;;;;;;;12.52;46.34;99425.78;1088370;54;20045;-81
2022/03/29 08:14:45;;;;;;;20.17;12.30;;;;;;;12.53;46.32;99422.09;1088547;54;20050;-84
2022/03/29 08:15:52;;;;;;;17.73;10.60;;;;;;;12.67;46.23;99411.66;1088790;46;20094;-83
2022/03/29 08:16:56;;;;;;;20.13;11.93;;;;;;;12.77;46.03;99417.66;1088538;54;20025;-84
2022/03/29 08:17:59;;;;;;;17.35;11.30;;;;;;;12.87;45.60;99412.91;1088344;54;20039;-83
2022/03/29 08:19:03;;;;;;;15.10;10.25;;;;;;;13.01;45.46;99415.88;1088416;54;20041;-85
2022/03/29 08:20:06;;;;;;;17.77;10.85;;;;;;;13.12;45.36;99407.44;1088503;54;20037;-84
2022/03/29 08:24:35;;;;;;;21.73;14.15;;;;;;;12.54;45.41;99417.56;1088129;54;20054;-81
2022/03/29 08:25:38;;;;;;;20.70;14.77;;;;;;;12.54;45.39;99417.56;1088429;54;20146;-83
2022/03/29 08:26:45;;;;;;;24.75;15.57;;;;;;;12.65;45.35;99409.16;1088432;54;20030;-83
2022/03/29 08:27:47;;;;;;;19.60;14.27;;;;;;;12.82;44.85;99409.94;1088362;54;20721;-81
2022/03/29 08:28:52;;;;;;;22.52;13.13;;;;;;;13.02;44.71;99407.63;1088410;54;20031;-81
2022/03/29 08:29:54;;;;;;;23.13;12.75;;;;;;;13.08;44.51;99406.91;1088431;54;20772;-83
2022/03/29 08:31:00;;;;;;;18.30;12.98;;;;;;;13.18;44.36;99395.97;1088528;54;20126;-83
2022/03/29 08:32:01;;;;;;;19.70;12.15;;;;;;;13.18;44.28;99405.84;1088470;54;20022;-83
2022/03/29 08:33:07;;;;;;;24.90;13.50;;;;;;;13.07;44.57;99402.59;1088468;54;20034;-83
2022/03/29 08:34:09;;;;;;;25.10;14.48;;;;;;;13.10;44.62;99402.22;1088428;54;20027;-83
2022/03/29 08:35:14;;;;;;;20.63;13.45;;;;;;;13.08;44.70;99406.91;1088404;54;20081;-82
2022/03/29 08:36:18;;;;;;;18.95;13.98;;;;;;;13.00;44.51;99408.81;1088364;54;20018;-83
2022/03/29 08:37:20;;;;;;;20.17;14.48;;;;;;;12.92;44.54;99410.56;1088374;54;20026;-84
2022/03/29 08:38:26;;;;;;;23.92;14.40;;;;;;;13.05;44.65;99409.13;1088321;54;20026;-82
2022/03/29 08:39:28;;;;;;;27.63;14.95;;;;;;;12.87;44.79;99407.53;1088898;46;20046;-82
2022/03/29 08:40:32;;;;;;;21.95;14.57;;;;;;;13.09;44.43;99405.91;1088378;54;20086;-83
2022/03/29 08:41:39;;;;;;;19.35;13.60;;;;;;;13.21;44.27;99402.81;1088419;54;20041;-83
2022/03/29 08:42:49;;;;;;;26.23;14.38;;;;;;;13.09;44.13;99405.91;1091953;39;20625;-83
2022/03/29 08:43:53;;;;;;;24.63;15.52;;;;;;;12.93;44.39;99406.84;1088377;54;20038;-82
2022/03/29 08:44:54;;;;;;;20.20;13.93;;;;;;;13.15;44.57;99407.06;1088430;54;20022;-81
2022/03/29 08:45:59;;;;;;;18.05;13.65;;;;;;;13.38;43.92;99403.56;1088438;54;20034;-82
2022/03/29 08:47:05;;;;;;;18.13;13.00;;;;;;;13.72;43.19;99410.38;1088483;54;20035;-83
2022/03/29 08:48:11;;;;;;;19.42;12.95;;;;;;;13.92;42.99;99404.47;1088624;54;20026;-83
2022/03/29 08:49:17;;;;;;;19.42;12.20;;;;;;;13.96;42.91;99400.44;1099812;39;20688;-83
2022/03/29 08:50:21;;;;;;;20.13;13.05;;;;;;;14.03;42.67;99402.19;1088516;54;20094;-82
2022/03/29 08:51:26;;;;;;;19.23;12.98;;;;;;;14.29;42.37;99397.41;1088520;54;20037;-79
2022/03/29 08:52:30;;;;;;;21.38;12.57;;;;;;;14.37;42.28;99399.16;1088582;54;20041;-83
2022/03/29 08:53:35;;;;;;;21.17;13.23;;;;;;;14.40;42.05;99396.94;1088600;54;20015;-82
2022/03/29 08:54:39;;;;;;;19.30;12.68;;;;;;;14.57;41.87;99391.34;1088330;54;20035;-83
2022/03/29 08:55:42;;;;;;;20.70;14.48;;;;;;;14.49;41.83;99395.81;1088582;54;20019;-79
2022/03/29 08:56:46;;;;;;;22.80;15.10;;;;;;;14.57;41.95;99392.22;1090111;46;20034;-83
2022/03/29 08:57:55;;;;;;;19.50;13.88;;;;;;;14.57;41.53;99391.34;1088630;54;20019;-84
2022/03/29 08:58:59;;;;;;;21.15;13.90;;;;;;;14.69;41.53;99386.38;1088674;46;20030;-83
2022/03/29 09:00:01;;;;;;;19.92;13.23;;;;;;;14.79;41.53;99389.59;1088480;54;20010;-84
2022/03/29 09:01:05;;;;;;;23.48;13.60;;;;;;;14.87;41.14;99385.97;1088488;54;20037;-82
2022/03/29 09:02:15;;;;;;;21.48;14.48;;;;;;;14.93;41.08;99390.59;1088916;46;20019;-83
2022/03/29 09:03:18;;;;;;;20.30;14.00;;;;;;;14.95;40.80;99396.63;1088528;54;20031;-82
2022/03/29 09:04:25;;;;;;;18.85;12.88;;;;;;;15.10;40.73;99388.50;1088300;54;20038;-82
2022/03/29 09:05:28;;;;;;;20.83;12.32;;;;;;;15.23;40.78;99394.03;1088441;54;20019;-83
2022/03/29 09:06:32;;;;;;;17.05;12.10;;;;;;;15.37;40.26;99380.69;1088439;54;20070;-83
2022/03/29 09:07:50;;;;;;;18.50;11.57;;;;;;;15.54;39.81;99390.19;1090547;46;20073;-82
2022/03/29 09:08:54;;;;;;;15.85;11.77;;;;;;;15.63;40.17;99382.81;1089247;46;20073;-83
2022/03/29 09:10:06;;;;;;;19.55;13.07;;;;;;;15.64;39.57;99387.19;1088331;54;20032;-80
2022/03/29 09:11:12;;;;;;;18.00;13.18;;;;;;;15.35;39.29;99385.47;1088384;54;20065;-82
2022/03/29 10:04:47;;;;;;;18.80;13.75;;;;;;;17.29;35.94;99321.00;1087760;54;21179;-83
2022/03/29 10:05:50;;;;;;;23.08;14.85;;;;;;;17.35;36.31;99330.16;1088284;54;20705;-85
2022/03/29 10:06:58;;;;;;;19.75;13.77;;;;;;;17.68;36.02;99326.59;1088335;54;20038;-84
2022/03/29 10:09:26;;;;;;;18.63;13.85;;;;;;;18.16;35.35;99317.41;1098085;39;20253;-85
2022/03/29 10:10:30;;;;;;;17.05;12.52;;;;;;;18.41;34.86;99309.44;1088344;54;20065;-85
2022/03/29 10:11:36;;;;;;;17.17;13.25;;;;;;;18.17;34.62;99309.06;1088429;54;20026;-84
2022/03/29 10:12:41;;;;;;;21.90;15.30;;;;;;;18.26;34.64;99306.13;1088430;54;20034;-85
2022/03/29 10:13:43;;;;;;;24.30;15.93;;;;;;;18.16;34.25;99301.19;1088454;54;20018;-84
2022/03/29 10:14:50;;;;;;;25.38;17.17;;;;;;;18.04;34.40;99299.13;1088438;54;20015;-84
2022/03/29 10:17:02;;;;;;;27.70;17.27;;;;;;;17.74;34.33;99294.16;1075170;39;21536;-85
2022/03/29 10:19:10;;;;;;;26.42;16.42;;;;;;;17.71;34.37;99289.16;1088378;54;20029;-85
2022/03/29 10:20:17;;;;;;;21.05;15.18;;;;;;;17.89;34.55;99285.81;1088386;54;20038;-84
2022/03/29 10:21:18;;;;;;;22.60;14.65;;;;;;;18.04;34.40;99282.09;1088524;54;20026;-85
2022/03/29 10:22:24;;;;;;;22.85;15.55;;;;;;;18.06;34.37;99277.28;1088482;54;20035;-86
2022/03/29 10:23:28;;;;;;;28.95;16.00;;;;;;;17.93;34.30;99273.56;1088405;54;20038;-86
2022/03/29 10:24:33;;;;;;;33.42;16.80;;;;;;;17.91;34.32;99272.09;1090562;46;20122;-85
2022/03/29 10:25:36;;;;;;;27.80;18.20;;;;;;;17.61;34.55;99273.41;1092025;39;20218;-85
2022/03/29 10:26:43;;;;;;;25.80;17.02;;;;;;;17.64;34.70;99271.31;1088477;54;20018;-85
2022/03/29 10:27:50;;;;;;;26.73;17.55;;;;;;;17.58;34.42;99273.00;1088328;54;20701;-84
2022/03/29 10:31:36;;;;;;;17.60;13.13;;;;;;;18.47;33.18;99273.38;1070077;39;21271;31
2022/03/29 10:37:21;;;;;;;27.40;18.40;;;;;;;18.05;32.83;99257.53;1069464;54;20937;31
2022/03/29 10:40:39;;;;;;;26.50;17.20;;;;;;;18.12;33.09;99256.66;1069254;54;20059;31
2022/03/29 10:43:55;;;;;;;25.57;17.30;;;;;;;18.20;33.02;99257.28;1069323;54;20030;31
2022/03/29 10:46:24;;;;;;;28.35;17.35;;;;;;;18.19;32.85;99252.91;1082051;54;20037;-86
2022/03/29 10:48:50;;;;;;;22.52;16.02;;;;;;;18.10;32.79;99243.38;1085799;54;20060;-83
2022/03/29 10:49:52;;;;;;;23.58;15.80;;;;;;;18.30;33.08;99251.38;1088225;54;20018;-84
2022/03/29 10:52:19;;;;;;;30.58;17.08;;;;;;;18.31;32.61;99249.53;1087916;54;21203;-86
2022/03/29 10:53:31;;;;;;;24.80;16.38;;;;;;;18.12;33.06;99241.28;1088429;54;20077;-84
2022/03/29 10:54:37;;;;;;;25.55;16.95;;;;;;;18.12;33.11;99249.41;1088318;54;20041;-82
2022/03/29 10:55:38;;;;;;;22.52;16.05;;;;;;;18.28;32.86;99241.84;1091306;46;20074;-85
2022/03/29 10:56:59;;;;;;;21.58;15.15;;;;;;;18.32;32.78;99233.06;1088367;47;20030;-83
2022/03/29 10:58:06;;;;;;;26.27;14.65;;;;;;;18.36;32.83;99236.19;1088236;54;20042;-82
2022/03/29 10:59:15;;;;;;;21.05;14.60;;;;;;;18.35;32.92;99234.50;1088962;46;20070;-86
2022/03/29 11:00:21;;;;;;;21.95;14.55;;;;;;;18.37;32.48;99227.84;1088556;46;20714;-85
2022/03/29 11:01:25;;;;;;;20.58;14.60;;;;;;;18.33;32.70;99236.59;1088213;54;20038;-83
2022/03/29 11:02:30;;;;;;;24.73;15.80;;;;;;;18.29;32.69;99229.97;1092185;46;20038;-84
2022/03/29 11:03:34;;;;;;;24.05;16.73;;;;;;;18.24;32.58;99227.91;1088210;54;20683;-83
2022/03/29 11:04:39;;;;;;;22.67;16.42;;;;;;;18.29;32.71;99230.78;1088187;54;20023;-82
2022/03/29 11:06:05;;;;;;;21.73;15.32;;;;;;;18.27;32.42;99223.94;1088216;54;20022;-82
2022/03/29 11:07:16;;;;;;;19.35;13.80;;;;;;;18.37;32.36;99218.91;1088227;54;20030;-83
2022/03/29 11:08:20;;;;;;;20.23;14.60;;;;;;;18.53;32.24;99212.97;1090225;46;20019;-83
2022/03/29 11:09:27;;;;;;;21.23;15.82;;;;;;;18.48;32.17;99215.50;1089664;46;20019;-84
2022/03/29 11:10:41;;;;;;;24.17;16.00;;;;;;;18.41;31.85;99212.03;1091258;46;20049;-83
2022/03/29 11:11:47;;;;;;;22.88;16.38;;;;;;;18.37;32.02;99213.50;1088201;54;20042;-83
2022/03/29 11:12:51;;;;;;;23.08;15.55;;;;;;;18.40;32.10;99202.25;1088186;54;20058;-84
2022/03/29 11:13:55;;;;;;;22.45;16.10;;;;;;;18.51;32.03;99201.56;1088089;54;20066;-83
2022/03/29 11:14:57;;;;;;;27.25;17.42;;;;;;;18.17;32.29;99203.59;1091324;46;20737;-81
2022/03/29 11:16:03;;;;;;;27.13;18.38;;;;;;;18.21;32.31;99196.72;1088126;54;20042;-80
2022/03/29 11:17:36;;;;;;;23.15;17.30;;;;;;;18.29;31.73;99198.31;1088028;54;20044;-82
2022/03/29 11:18:45;;;;;;;32.13;15.18;;;;;;;18.39;31.78;99196.00;1088180;54;20018;-84
2022/03/29 11:19:50;;;;;;;26.65;16.10;;;;;;;18.44;31.82;99195.34;1088040;54;20022;-84
2022/03/29 11:20:53;;;;;;;25.27;17.90;;;;;;;18.19;32.17;99190.69;1088132;54;20126;-83
2022/03/29 11:22:00;;;;;;;25.30;17.13;;;;;;;18.40;32.02;99188.72;1088106;54;20037;-81
2022/03/29 11:23:04;;;;;;;22.77;16.67;;;;;;;18.30;31.81;99180.25;1088203;54;20027;-83
2022/03/29 11:24:15;;;;;;;30.75;19.63;;;;;;;18.21;32.01;99179.66;1088120;54;20031;-83
2022/03/29 11:25:22;;;;;;;31.88;19.98;;;;;;;17.86;31.57;99186.22;1088183;54;20043;-83
2022/03/29 11:26:26;;;;;;;37.40;20.75;;;;;;;17.89;32.00;99180.38;1088153;54;20034;-83
2022/03/29 11:27:32;;;;;;;26.98;18.15;;;;;;;17.99;31.83;99181.84;1088181;54;20035;-83
2022/03/29 11:28:34;;;;;;;28.52;17.70;;;;;;;18.08;32.15;99180.53;1090123;47;20045;-82
2022/03/29 11:29:39;;;;;;;29.50;18.15;;;;;;;18.19;31.58;99181.72;1088106;54;20061;-82
2022/03/29 11:30:41;;;;;;;23.42;15.80;;;;;;;18.36;31.61;99182.91;1087959;54;20041;-84
2022/03/29 11:31:46;;;;;;;22.35;15.40;;;;;;;18.45;31.43;99179.94;1088160;54;20042;-84
2022/03/29 11:32:47;;;;;;;27.98;18.52;;;;;;;18.26;31.36;99179.00;1088158;54;20034;-84
2022/03/29 11:33:57;;;;;;;33.03;20.23;;;;;;;18.11;31.50;99180.13;1088133;54;20019;-83
2022/03/29 11:35:01;;;;;;;28.42;19.13;;;;;;;17.98;31.98;99182.88;1088815;47;20079;-84
2022/03/29 11:36:06;;;;;;;28.00;18.40;;;;;;;17.98;31.83;99169.34;1088123;54;20018;-84
2022/03/29 11:37:11;;;;;;;26.73;17.73;;;;;;;18.06;31.72;99169.09;1088088;54;20041;-81
2022/03/29 11:38:16;;;;;;;28.80;19.70;;;;;;;17.81;32.17;99167.09;1088152;54;20030;-83
2022/03/29 11:39:25;;;;;;;30.33;19.48;;;;;;;17.81;32.21;99172.50;1091556;39;21023;-82
2022/03/29 11:40:30;;;;;;;27.30;16.95;;;;;;;17.97;32.25;99173.09;1087962;54;20022;-82
2022/03/29 11:41:35;;;;;;;24.63;17.48;;;;;;;17.95;31.88;99164.38;1088522;39;20657;-82
2022/03/29 11:42:44;;;;;;;29.23;18.95;;;;;;;17.88;32.09;99173.31;1088070;54;20019;-85
2022/03/29 11:43:54;;;;;;;27.63;18.63;;;;;;;17.96;32.01;99158.75;1088099;54;20061;-82
2022/03/29 11:44:58;;;;;;;25.30;16.95;;;;;;;17.93;32.21;99161.84;1088053;54;20031;-83
2022/03/29 11:46:00;;;;;;;25.33;16.30;;;;;;;18.05;31.89;99159.34;1088072;54;20042;-82
2022/03/29 11:47:04;;;;;;;24.17;16.23;;;;;;;18.17;31.83;99152.22;1088063;54;20037;-81
2022/03/29 11:48:11;;;;;;;22.35;15.32;;;;;;;18.21;31.91;99148.03;1088074;54;20035;-81
2022/03/29 11:49:15;;;;;;;25.90;17.10;;;;;;;18.20;31.55;99145.53;1088057;54;20021;-82
2022/03/29 11:50:31;;;;;;;26.80;17.23;;;;;;;18.14;31.75;99144.50;1088023;54;20030;-84
2022/03/29 11:51:35;;;;;;;29.08;18.02;;;;;;;18.20;31.88;99140.97;1088055;54;20062;-83
2022/03/29 11:52:38;;;;;;;27.48;17.83;;;;;;;18.21;31.70;99131.81;1087654;54;20045;-85
2022/03/29 11:53:42;;;;;;;27.52;18.45;;;;;;;18.28;31.69;99129.03;1088078;54;20038;-86
2022/03/29 11:54:48;;;;;;;29.20;18.00;;;;;;;18.30;31.46;99134.25;1088031;54;20106;-80
2022/03/29 11:56:00;;;;;;;24.55;17.70;;;;;;;18.31;31.40;99133.22;1088040;54;20019;-82
2022/03/29 11:57:18;;;;;;;23.77;16.45;;;;;;;18.34;31.24;99127.34;1088073;54;20635;-82
2022/03/29 11:58:21;;;;;;;28.92;17.85;;;;;;;18.32;31.70;99126.75;1088066;54;20035;-83
2022/03/29 11:59:32;;;;;;;26.52;16.88;;;;;;;18.38;31.49;99131.28;1088029;54;20039;-81
2022/03/29 12:00:35;;;;;;;26.17;17.65;;;;;;;18.45;31.33;99126.66;1088040;54;20027;-84
2022/03/29 12:01:39;;;;;;;23.92;16.23;;;;;;;18.59;31.09;99126.56;1088084;54;20037;-82
2022/03/29 12:02:41;;;;;;;25.15;17.85;;;;;;;18.55;30.99;99116.16;1088148;54;20046;-83
2022/03/29 12:03:47;;;;;;;25.42;16.77;;;;;;;18.59;30.96;99121.16;1088155;54;20015;-83
2022/03/29 12:04:49;;;;;;;26.58;17.88;;;;;;;18.62;30.88;99118.84;1088136;54;20042;-87
2022/03/29 12:06:04;;;;;;;27.50;17.88;;;;;;;18.60;30.53;99112.00;1088192;54;20019;-86
2022/03/29 12:07:09;;;;;;;23.60;16.80;;;;;;;18.69;30.75;99110.66;1088205;54;20015;-85
2022/03/29 12:08:11;;;;;;;29.02;18.52;;;;;;;18.55;30.71;99107.22;1088215;54;20031;-85
2022/03/29 12:09:16;;;;;;;26.38;18.98;;;;;;;18.58;30.50;99100.53;1088260;54;20042;-84
2022/03/29 12:10:28;;;;;;;27.38;19.30;;;;;;;18.49;30.72;99103.53;1088270;54;20045;-84
2022/03/29 12:11:37;;;;;;;25.00;18.05;;;;;;;18.65;30.68;99094.03;1088210;54;20038;-86
2022/03/29 12:12:38;;;;;;;25.27;17.50;;;;;;;18.76;30.45;99091.63;1088266;54;20030;-85
2022/03/29 12:13:48;;;;;;;24.38;16.58;;;;;;;18.85;30.13;99087.59;1088127;54;20742;-85
2022/03/29 12:15:03;;;;;;;29.17;18.50;;;;;;;18.74;29.95;99086.44;1088211;54;20053;-84
2022/03/29 12:16:22;;;;;;;29.85;20.23;;;;;;;18.29;30.62;99095.53;1093798;39;20555;-84
2022/03/29 12:17:26;;;;;;;31.33;19.38;;;;;;;18.35;30.84;99093.84;1088221;54;20025;-83
2022/03/29 12:18:45;;;;;;;31.15;20.65;;;;;;;18.21;30.57;99088.53;1088212;54;20022;-84
2022/03/29 12:19:50;;;;;;;33.90;20.45;;;;;;;18.38;30.90;99094.22;1088229;54;20122;-84
2022/03/29 12:20:57;;;;;;;28.55;18.75;;;;;;;18.71;30.46;99084.19;1088276;54;20034;-86
2022/03/29 12:22:03;;;;;;;26.50;18.08;;;;;;;18.79;30.00;99086.63;1106585;31;20792;-86
2022/03/29 12:23:16;;;;;;;28.13;17.65;;;;;;;18.90;30.15;99082.34;1088210;54;20030;-85
2022/03/29 12:24:20;;;;;;;26.20;17.95;;;;;;;18.92;29.95;99085.69;1088232;54;20141;-85